createdAt,value
2022-11-04T00:04:51.189Z,99562.88
2022-11-04T00:07:47.614Z,99570.69
2022-11-04T00:10:42.800Z,99567.25
2022-11-04T00:13:28.739Z,99563.84
2022-11-04T00:16:26.288Z,99569.09
2022-11-04T00:22:19.715Z,99563.06
2022-11-04T00:25:20.294Z,99561.41
2022-11-04T00:31:45.514Z,99565.56
2022-11-04T00:34:32.040Z,99565.63
2022-11-04T00:37:18.999Z,99560.47
2022-11-04T00:40:03.540Z,99562.19
2022-11-04T00:42:53.060Z,99565.66
2022-11-04T00:45:37.297Z,99560.47
2022-11-04T00:54:36.694Z,99558.69
2022-11-04T00:57:20.441Z,99558.78
2022-11-04T01:00:04.321Z,99557.16
2022-11-04T01:02:49.640Z,99560.69
2022-11-04T01:05:37.795Z,99559.81
2022-11-04T01:08:17.752Z,99553.81
2022-11-04T01:10:55.017Z,99550.41
2022-11-04T01:13:55.310Z,99538.34
2022-11-04T01:16:38.731Z,99434.94
2022-11-04T01:19:37.110Z,99545.28
2022-11-04T01:25:24.244Z,99538.50
2022-11-04T01:28:04.523Z,99542.81
2022-11-04T01:30:44.048Z,99535.06
2022-11-04T01:36:16.317Z,99538.50
2022-11-04T01:38:54.411Z,99529.88
2022-11-04T01:41:44.484Z,99513.44
2022-11-04T01:44:59.037Z,99521.19
2022-11-04T01:47:54.346Z,99514.28
2022-11-04T01:51:03.521Z,99521.19
2022-11-04T01:53:51.821Z,99498.78
2022-11-04T01:56:58.926Z,99515.16
2022-11-04T01:59:43.165Z,99515.09
2022-11-04T02:02:27.050Z,99509.03
2022-11-04T02:05:23.058Z,99497.81
2022-11-04T02:08:02.183Z,99496.94
2022-11-04T02:11:03.150Z,99500.41
2022-11-04T02:13:42.140Z,99495.34
2022-11-04T02:16:29.131Z,99484.13
2022-11-04T02:19:25.671Z,99488.44
2022-11-04T02:22:51.864Z,99497.06
2022-11-04T02:26:01.884Z,99483.34
2022-11-04T02:29:18.232Z,99493.72
2022-11-04T02:32:17.692Z,99483.31
2022-11-04T02:35:20.202Z,99475.56
2022-11-04T02:38:18.520Z,99490.16
2022-11-04T02:41:01.286Z,99484.09
2022-11-04T02:43:50.490Z,99488.38
2022-11-04T02:46:48.461Z,99477.25
2022-11-04T02:53:05.230Z,99472.00
2022-11-04T02:58:55.131Z,99466.06
2022-11-04T03:01:41.655Z,99466.00
2022-11-04T03:04:38.827Z,99471.97
2022-11-04T03:07:31.690Z,99472.75
2022-11-04T03:13:25.847Z,99467.69
2022-11-04T03:19:18.196Z,99466.06
2022-11-04T03:22:03.952Z,99464.41
2022-11-04T03:24:43.216Z,99444.66
2022-11-04T03:27:30.352Z,99448.94
2022-11-04T03:30:19.090Z,99461.03
2022-11-04T03:33:09.274Z,99435.19
2022-11-04T03:35:55.620Z,99453.28
2022-11-04T03:38:58.775Z,99452.41
2022-11-04T03:41:44.071Z,99454.06
2022-11-04T03:44:30.118Z,99450.59
2022-11-04T03:47:10.003Z,99445.44
2022-11-04T03:50:05.447Z,99451.41
2022-11-04T03:52:49.729Z,99390.34
2022-11-04T03:55:44.482Z,99437.59
2022-11-04T03:58:39.674Z,99447.03
2022-11-04T04:01:39.013Z,99444.34
2022-11-04T04:04:38.846Z,99427.06
2022-11-04T04:07:34.844Z,99429.72
2022-11-04T04:10:57.607Z,99433.97
2022-11-04T04:14:26.417Z,99431.34
2022-11-04T04:17:30.451Z,99435.69
2022-11-04T04:20:15.359Z,99424.53
2022-11-04T04:23:04.556Z,99431.41
2022-11-04T04:25:59.429Z,99424.59
2022-11-04T04:28:54.365Z,99419.47
2022-11-04T04:32:07.038Z,99428.09
2022-11-04T04:34:48.477Z,99426.41
2022-11-04T04:37:30.932Z,99424.69
2022-11-04T04:40:25.219Z,99433.22
2022-11-04T04:43:16.472Z,99405.63
2022-11-04T04:46:11.779Z,99433.84
2022-11-04T04:49:10.329Z,99432.84
2022-11-04T04:51:58.816Z,99443.16
2022-11-04T04:54:42.373Z,99455.41
2022-11-04T04:57:35.885Z,99453.78
2022-11-04T05:00:33.121Z,99447.03
2022-11-04T05:03:25.346Z,99450.53
2022-11-04T05:06:04.157Z,99436.81
2022-11-04T05:08:42.689Z,99457.47
2022-11-04T05:11:22.720Z,99452.34
2022-11-04T05:14:21.500Z,99459.25
2022-11-04T05:17:09.946Z,99450.66
2022-11-04T05:20:33.577Z,99460.97
2022-11-04T05:23:18.935Z,99450.66
2022-11-04T05:25:54.417Z,99461.00
2022-11-04T05:28:33.281Z,99474.78
2022-11-04T05:31:15.800Z,99477.38
2022-11-04T05:34:04.811Z,99485.16
2022-11-04T05:37:01.241Z,99484.28
2022-11-04T05:39:46.446Z,99491.16
2022-11-04T05:42:26.304Z,99486.84
2022-11-04T05:45:10.323Z,99490.28
2022-11-04T05:48:05.621Z,99492.03
2022-11-04T05:50:42.529Z,99488.56
2022-11-04T05:53:21.057Z,99490.31
2022-11-04T05:58:46.267Z,99500.59
2022-11-04T06:01:48.936Z,99492.00
2022-11-04T06:04:36.256Z,99503.19
2022-11-04T06:07:26.495Z,99505.75
2022-11-04T06:10:16.308Z,99512.66
2022-11-04T06:13:03.446Z,99498.88
2022-11-04T06:15:57.660Z,99508.31
2022-11-04T06:18:44.888Z,99488.50
2022-11-04T06:21:45.739Z,99485.03
2022-11-04T06:24:34.595Z,99500.56
2022-11-04T06:27:36.386Z,99503.13
2022-11-04T06:30:14.444Z,99498.81
2022-11-04T06:32:52.625Z,99501.38
2022-11-04T06:35:31.152Z,99503.94
2022-11-04T06:38:12.193Z,99501.34
2022-11-04T06:40:53.995Z,99503.94
2022-11-04T06:44:05.654Z,99506.50
2022-11-04T06:46:53.574Z,99519.34
2022-11-04T06:49:50.767Z,99509.00
2022-11-04T06:52:27.459Z,99517.53
2022-11-04T06:55:20.873Z,99515.81
2022-11-04T06:58:06.486Z,99512.38
2022-11-04T07:03:39.562Z,99524.31
2022-11-04T07:06:27.760Z,99525.16
2022-11-04T07:09:21.745Z,99532.00
2022-11-04T07:11:59.304Z,99544.84
2022-11-04T07:14:42.592Z,99542.22
2022-11-04T07:17:33.359Z,99537.81
2022-11-04T07:20:42.395Z,99545.50
2022-11-04T07:23:19.814Z,99529.09
2022-11-04T07:26:02.536Z,99549.78
2022-11-04T07:28:54.093Z,99549.78
2022-11-04T07:31:49.033Z,99546.34
2022-11-04T07:34:32.824Z,99555.78
2022-11-04T07:37:12.707Z,99551.47
2022-11-04T07:39:52.116Z,99555.75
2022-11-04T07:42:32.346Z,99560.00
2022-11-04T07:45:08.052Z,99559.06
2022-11-04T07:47:46.671Z,99556.53
2022-11-04T07:50:29.006Z,99553.97
2022-11-04T07:53:09.964Z,99535.88
2022-11-04T07:55:58.053Z,99549.59
2022-11-04T07:58:37.679Z,99553.03
2022-11-04T08:01:19.245Z,99549.47
2022-11-04T08:07:02.591Z,99556.38
2022-11-04T08:10:04.401Z,99577.00
2022-11-04T08:12:54.705Z,99566.72
2022-11-04T08:15:36.537Z,99572.75
2022-11-04T08:18:27.175Z,99570.16
2022-11-04T08:24:56.921Z,99572.66
2022-11-04T08:27:41.531Z,99576.09
2022-11-04T08:30:29.045Z,99572.59
2022-11-04T08:33:12.615Z,99574.41
2022-11-04T08:39:11.179Z,99571.75
2022-11-04T08:41:48.112Z,99557.03
2022-11-04T08:44:54.491Z,99576.06
2022-11-04T08:47:30.267Z,99542.31
2022-11-04T08:50:28.703Z,99584.63
2022-11-04T08:56:11.543Z,99593.13
2022-11-04T08:58:54.793Z,99597.50
2022-11-04T09:01:50.593Z,99584.50
2022-11-04T09:04:34.659Z,99588.00
2022-11-04T09:07:28.514Z,99593.97
2022-11-04T09:10:16.423Z,99602.56
2022-11-04T09:15:55.388Z,99608.53
2022-11-04T09:22:09.927Z,99607.59
2022-11-04T09:24:51.466Z,99618.75
2022-11-04T09:30:35.057Z,99590.25
2022-11-04T09:33:26.041Z,99617.03
2022-11-04T09:36:06.985Z,99619.56
2022-11-04T09:39:04.849Z,99617.78
2022-11-04T09:42:19.083Z,99609.22
2022-11-04T09:45:22.108Z,99622.03
2022-11-04T09:48:15.537Z,99581.47
2022-11-04T09:51:20.823Z,99629.81
2022-11-04T09:54:20.386Z,99622.78
2022-11-04T09:57:03.065Z,99558.91
2022-11-04T10:00:06.631Z,99622.78
2022-11-04T10:03:07.576Z,99550.38
2022-11-04T10:09:36.320Z,99635.13
2022-11-04T10:12:28.937Z,99642.06
2022-11-04T10:15:37.443Z,99619.72
2022-11-04T10:18:46.926Z,99643.13
2022-11-04T10:22:11.593Z,99639.78
2022-11-04T10:25:08.323Z,99639.75
2022-11-04T10:27:59.850Z,99645.75
2022-11-04T10:30:53.890Z,99646.66
2022-11-04T10:33:35.938Z,99519.84
2022-11-04T10:36:14.749Z,99659.47
2022-11-04T10:38:54.653Z,99606.03
2022-11-04T10:41:55.422Z,99647.44
2022-11-04T10:44:50.313Z,99656.00
2022-11-04T10:47:44.819Z,99666.28
2022-11-04T10:50:47.900Z,99673.13
2022-11-04T10:53:35.013Z,99673.00
2022-11-04T10:56:21.744Z,99671.22
2022-11-04T10:59:23.628Z,99674.50
2022-11-04T11:02:11.195Z,99674.47
2022-11-04T11:04:45.553Z,99681.28
2022-11-04T11:07:26.789Z,99683.81
2022-11-04T11:10:10.787Z,99688.94
2022-11-04T11:13:06.811Z,99682.88
2022-11-04T11:15:53.812Z,99692.31
2022-11-04T11:18:31.868Z,99691.41
2022-11-04T11:25:02.118Z,99695.59
2022-11-04T11:27:40.142Z,99703.34
2022-11-04T11:30:43.992Z,99693.84
2022-11-04T11:33:40.584Z,99698.22
2022-11-04T11:36:31.714Z,99705.06
2022-11-04T11:39:20.917Z,99699.81
2022-11-04T11:42:07.314Z,99713.53
2022-11-04T11:44:50.351Z,99711.91
2022-11-04T11:47:47.184Z,99684.31
2022-11-04T11:50:38.171Z,99701.53
2022-11-04T11:53:36.674Z,99717.97
2022-11-04T11:56:58.766Z,99720.75
2022-11-04T12:02:50.017Z,99722.44
2022-11-04T12:09:34.468Z,99729.41
2022-11-04T12:12:44.546Z,99740.63
2022-11-04T12:16:05.234Z,99720.09
2022-11-04T12:19:12.749Z,99737.31
2022-11-04T12:22:05.561Z,99741.56
2022-11-04T12:24:59.811Z,99741.53
2022-11-04T12:27:55.854Z,99719.00
2022-11-04T12:30:38.825Z,99743.06
2022-11-04T12:33:33.039Z,99634.13
2022-11-04T12:36:28.832Z,99733.50
2022-11-04T12:39:47.418Z,99749.84
2022-11-04T12:42:41.474Z,99723.72
2022-11-04T12:49:01.844Z,99757.09
2022-11-04T12:52:01.887Z,99751.19
2022-11-04T12:55:13.603Z,99758.38
2022-11-04T13:00:59.976Z,99730.88
2022-11-04T13:04:12.022Z,99753.44
2022-11-04T13:06:56.901Z,99756.00
2022-11-04T13:10:01.975Z,99755.25
2022-11-04T13:12:57.290Z,99760.50
2022-11-04T13:15:53.240Z,99758.88
2022-11-04T13:18:36.076Z,99739.16
2022-11-04T13:21:23.995Z,99743.59
2022-11-04T13:24:35.692Z,99757.47
2022-11-04T13:27:26.934Z,99748.94
2022-11-04T13:30:25.305Z,99621.97
2022-11-04T13:33:11.209Z,99752.41
2022-11-04T13:36:04.460Z,99742.03
2022-11-04T13:38:52.554Z,99741.94
2022-11-04T13:42:04.476Z,99743.72
2022-11-04T13:44:45.158Z,99747.97
2022-11-04T13:47:59.637Z,99747.03
2022-11-04T13:50:46.339Z,99753.06
2022-11-04T13:53:50.458Z,99743.53
2022-11-04T13:56:53.468Z,99734.06
2022-11-04T13:59:46.630Z,99736.56
2022-11-04T14:02:50.087Z,99753.75
2022-11-04T14:06:10.889Z,99748.59
2022-11-04T14:09:31.315Z,99754.47
2022-11-04T14:13:00.642Z,99743.22
2022-11-04T14:20:14.999Z,99750.81
2022-11-04T14:23:39.085Z,99755.88
2022-11-04T14:26:33.105Z,99764.41
2022-11-04T14:29:21.856Z,99760.84
2022-11-04T14:32:12.567Z,99773.63
2022-11-04T14:35:02.986Z,99773.59
2022-11-04T14:37:55.918Z,99776.84
2022-11-04T14:41:12.326Z,99774.25
2022-11-04T14:44:08.932Z,99754.31
2022-11-04T14:47:18.872Z,99786.22
2022-11-04T14:53:06.884Z,99780.72
2022-11-04T14:55:53.305Z,99785.09
2022-11-04T14:58:35.858Z,99785.88
2022-11-04T15:01:12.791Z,99788.56
2022-11-04T15:04:16.673Z,99786.00
2022-11-04T15:07:07.398Z,99790.19
2022-11-04T15:10:10.092Z,99788.56
2022-11-04T15:13:00.568Z,99782.72
2022-11-04T15:15:40.240Z,99787.00
2022-11-04T15:18:28.098Z,99776.47
2022-11-04T15:21:23.749Z,99781.75
2022-11-04T15:24:15.915Z,99797.28
2022-11-04T15:27:09.084Z,99794.75
2022-11-04T15:30:11.338Z,99806.06
2022-11-04T15:33:07.350Z,99804.41
2022-11-04T15:39:04.530Z,99811.41
2022-11-04T15:42:01.293Z,99802.81
2022-11-04T15:44:50.833Z,99814.16
2022-11-04T15:48:25.861Z,99821.97
2022-11-04T15:51:42.963Z,99816.84
2022-11-04T15:54:30.736Z,99816.06
2022-11-04T15:57:15.287Z,99822.91
2022-11-04T15:59:59.273Z,99799.59
2022-11-04T16:03:08.275Z,99824.66
2022-11-04T16:05:55.238Z,99830.75
2022-11-04T16:08:38.789Z,99829.03
2022-11-04T16:11:24.763Z,99773.63
2022-11-04T16:14:13.959Z,99835.00
2022-11-04T16:17:01.069Z,99832.28
2022-11-04T16:20:14.278Z,99840.00
2022-11-04T16:23:09.847Z,99830.50
2022-11-04T16:25:58.016Z,99833.88
2022-11-04T16:28:37.346Z,99833.84
2022-11-04T16:31:37.456Z,99839.03
2022-11-04T16:34:31.554Z,99844.19
2022-11-04T16:37:43.994Z,99843.34
2022-11-04T16:40:22.570Z,99802.75
2022-11-04T16:43:15.965Z,99826.94
2022-11-04T16:46:27.618Z,99846.84
2022-11-04T16:49:15.236Z,99840.03
2022-11-04T16:54:49.985Z,99848.78
2022-11-04T16:57:37.313Z,99853.00
2022-11-04T17:00:40.147Z,99846.06
2022-11-04T17:03:28.965Z,99856.38
2022-11-04T17:06:10.860Z,99795.84
2022-11-04T17:08:56.769Z,99854.66
2022-11-04T17:11:51.420Z,99839.25
2022-11-04T17:15:06.708Z,99849.53
2022-11-04T17:18:18.332Z,99832.28
2022-11-04T17:21:35.433Z,99852.19
2022-11-04T17:24:14.826Z,99851.28
2022-11-04T17:27:22.990Z,99854.69
2022-11-04T17:30:09.511Z,99851.28
2022-11-04T17:33:12.619Z,99855.63
2022-11-04T17:35:57.662Z,99843.50
2022-11-04T17:38:55.200Z,99857.31
2022-11-04T17:41:43.896Z,99849.53
2022-11-04T17:44:26.633Z,99846.13
2022-11-04T17:47:22.209Z,99846.06
2022-11-04T17:50:08.907Z,99852.94
2022-11-04T17:55:49.684Z,99839.13
2022-11-04T17:58:37.102Z,99846.97
2022-11-04T18:01:26.253Z,99855.59
2022-11-04T18:04:22.683Z,99783.84
2022-11-04T18:07:03.103Z,99827.09
2022-11-04T18:09:40.467Z,99860.88
2022-11-04T18:12:27.358Z,99872.06
2022-11-04T18:15:07.262Z,99870.31
2022-11-04T18:18:07.090Z,99866.84
2022-11-04T18:20:51.720Z,99866.91
2022-11-04T18:23:41.262Z,99868.56
2022-11-04T18:26:19.907Z,99865.06
2022-11-04T18:29:10.135Z,99865.91
2022-11-04T18:31:52.070Z,99865.06
2022-11-04T18:34:37.738Z,99776.59
2022-11-04T18:37:47.040Z,99877.75
2022-11-04T18:40:26.651Z,99871.72
2022-11-04T18:43:09.501Z,99870.91
2022-11-04T18:45:52.458Z,99883.81
2022-11-04T18:48:30.305Z,99879.56
2022-11-04T18:51:19.022Z,99895.94
2022-11-04T18:54:02.388Z,99889.09
2022-11-04T18:56:43.241Z,99890.84
2022-11-04T18:59:20.577Z,99900.13
2022-11-04T19:02:12.934Z,99899.41
2022-11-04T19:04:51.867Z,99898.63
2022-11-04T19:07:37.582Z,99903.75
2022-11-04T19:10:17.830Z,99914.91
2022-11-04T19:16:14.809Z,99857.75
2022-11-04T19:19:11.635Z,99905.41
2022-11-04T19:21:55.262Z,99901.16
2022-11-04T19:24:34.857Z,99891.78
2022-11-04T19:27:28.209Z,99894.41
2022-11-04T19:30:12.563Z,99897.00
2022-11-04T19:33:12.395Z,99904.69
2022-11-04T19:38:50.764Z,99894.41
2022-11-04T19:41:45.467Z,99896.22
2022-11-04T19:44:48.257Z,99897.09
2022-11-04T19:47:52.366Z,99899.69
2022-11-04T19:50:30.151Z,99859.75
2022-11-04T19:53:04.098Z,99909.22
2022-11-04T19:55:46.332Z,99905.72
2022-11-04T19:58:31.448Z,99904.75
2022-11-04T20:01:26.070Z,99902.13
2022-11-04T20:04:12.194Z,99901.31
2022-11-04T20:06:51.987Z,99909.03
2022-11-04T20:09:29.487Z,99903.03
2022-11-04T20:12:23.851Z,99904.81
2022-11-04T20:15:10.159Z,99901.34
2022-11-04T20:18:06.155Z,99905.66
2022-11-04T20:20:46.806Z,99906.50
2022-11-04T20:23:39.412Z,99908.22
2022-11-04T20:26:20.827Z,99909.97
2022-11-04T20:29:02.674Z,99908.97
2022-11-04T20:32:05.659Z,99908.91
2022-11-04T20:37:54.251Z,99904.53
2022-11-04T20:40:32.076Z,99900.19
2022-11-04T20:43:12.545Z,99901.00
2022-11-04T20:46:01.107Z,99906.13
2022-11-04T20:48:44.627Z,99899.31
2022-11-04T20:51:22.757Z,99906.97
2022-11-04T20:54:04.616Z,99899.25
2022-11-04T20:56:45.466Z,99890.53
2022-11-04T20:59:32.600Z,99914.59
2022-11-04T21:02:18.131Z,99914.50
2022-11-04T21:04:55.467Z,99905.84
2022-11-04T21:07:50.140Z,99909.22
2022-11-04T21:10:37.380Z,99913.47
2022-11-04T21:13:14.369Z,99916.06
2022-11-04T21:16:03.666Z,99912.63
2022-11-04T21:18:40.975Z,99910.00
2022-11-04T21:21:41.944Z,99925.59
2022-11-04T21:24:39.024Z,99919.47
2022-11-04T21:27:24.475Z,99926.25
2022-11-04T21:30:12.274Z,99927.94
2022-11-04T21:32:59.262Z,99926.22
2022-11-04T21:35:41.437Z,99929.69
2022-11-04T21:38:21.469Z,99881.19
2022-11-04T21:41:09.216Z,99942.69
2022-11-04T21:44:03.091Z,99928.13
2022-11-04T21:46:44.442Z,99936.75
2022-11-04T21:49:37.377Z,99929.13
2022-11-04T21:52:16.878Z,99924.91
2022-11-04T21:54:55.331Z,99927.50
2022-11-04T21:57:47.975Z,99934.41
2022-11-04T22:00:50.449Z,99928.31
2022-11-04T22:03:36.911Z,99935.16
2022-11-04T22:06:23.303Z,99937.78
2022-11-04T22:09:01.893Z,99940.47
2022-11-04T22:11:46.627Z,99885.94
2022-11-04T22:14:35.432Z,99947.47
2022-11-04T22:17:32.566Z,99947.50
2022-11-04T22:20:15.822Z,99949.22
2022-11-04T22:23:01.511Z,99949.19
2022-11-04T22:25:50.312Z,99945.78
2022-11-04T22:28:38.750Z,99957.84
2022-11-04T22:31:50.579Z,99950.22
2022-11-04T22:34:35.110Z,99962.31
2022-11-04T22:37:27.226Z,99958.91
2022-11-04T22:40:05.816Z,99964.97
2022-11-04T22:46:11.669Z,99970.22
2022-11-04T22:48:53.440Z,99968.50
2022-11-04T22:51:44.552Z,99973.69
2022-11-04T22:54:30.875Z,99977.97
2022-11-04T22:57:13.319Z,99977.19
2022-11-04T23:00:05.818Z,99985.78
2022-11-04T23:02:50.253Z,99977.19
2022-11-04T23:05:41.738Z,99985.06
2022-11-04T23:08:30.382Z,99984.31
2022-11-04T23:11:27.200Z,99984.38
2022-11-04T23:14:28.275Z,99974.13
2022-11-04T23:17:24.968Z,99981.94
2022-11-04T23:20:11.380Z,99943.97
2022-11-04T23:26:14.536Z,99988.41
2022-11-04T23:29:17.226Z,99985.94
2022-11-04T23:32:05.131Z,99945.34
2022-11-04T23:34:58.685Z,99985.28
2022-11-04T23:37:46.149Z,99969.78
2022-11-04T23:40:38.084Z,99978.59
2022-11-04T23:43:34.724Z,99982.03
2022-11-04T23:46:27.843Z,99976.91
2022-11-04T23:49:24.502Z,99970.94
2022-11-04T23:52:16.234Z,99968.34
2022-11-04T23:55:13.704Z,99964.03
